createdAt,value
2022-08-02T00:00:30.800Z,23
2022-08-02T00:03:30.885Z,23
2022-08-02T00:06:30.784Z,23
2022-08-02T00:09:30.789Z,22.9
2022-08-02T00:12:30.787Z,22.9
2022-08-02T00:15:30.800Z,22.9
2022-08-02T00:18:30.795Z,22.9
2022-08-02T00:21:30.789Z,22.8
2022-08-02T00:24:31.164Z,22.8
2022-08-02T00:30:30.800Z,22.8
2022-08-02T00:34:04.771Z,22.8
2022-08-02T00:36:30.795Z,22.8
2022-08-02T00:39:33.446Z,22.8
2022-08-02T00:42:30.791Z,22.7
2022-08-02T00:45:58.842Z,22.7
2022-08-02T00:48:30.804Z,22.7
2022-08-02T00:51:30.794Z,22.7
2022-08-02T00:54:30.802Z,22.7
2022-08-02T00:57:30.797Z,22.6
2022-08-02T01:00:30.798Z,22.6
2022-08-02T01:06:30.801Z,22.5
2022-08-02T01:09:30.804Z,22.5
2022-08-02T01:12:30.791Z,22.4
2022-08-02T01:15:35.806Z,22.4
2022-08-02T01:18:30.812Z,22.4
2022-08-02T01:21:30.799Z,22.3
2022-08-02T01:24:30.796Z,22.3
2022-08-02T01:27:30.820Z,22.3
2022-08-02T01:30:30.807Z,22.2
2022-08-02T01:33:30.808Z,22.2
2022-08-02T01:36:30.801Z,22.2
2022-08-02T01:39:32.060Z,22.1
2022-08-02T01:42:30.806Z,22.1
2022-08-02T01:45:30.806Z,22.1
2022-08-02T01:48:30.811Z,22.1
2022-08-02T01:51:32.727Z,22.1
2022-08-02T01:54:30.818Z,22
2022-08-02T01:57:30.815Z,22
2022-08-02T02:00:30.809Z,22
2022-08-02T02:03:30.804Z,22
2022-08-02T02:06:30.808Z,22
2022-08-02T02:09:30.851Z,22
2022-08-02T02:12:30.805Z,21.9
2022-08-02T02:15:30.820Z,21.9
2022-08-02T02:18:30.804Z,21.9
2022-08-02T02:21:31.444Z,21.9
2022-08-02T02:24:30.809Z,21.9
2022-08-02T02:27:30.810Z,21.9
2022-08-02T02:30:30.808Z,21.9
2022-08-02T02:33:30.821Z,21.8
2022-08-02T02:36:30.820Z,21.8
2022-08-02T02:39:30.812Z,21.8
2022-08-02T02:42:30.811Z,21.8
2022-08-02T02:45:30.811Z,21.8
2022-08-02T02:48:30.825Z,21.8
2022-08-02T02:51:30.829Z,21.7
2022-08-02T02:54:34.837Z,21.7
2022-08-02T02:57:30.819Z,21.7
2022-08-02T03:00:30.828Z,21.7
2022-08-02T03:03:30.817Z,21.7
2022-08-02T03:06:30.818Z,21.7
2022-08-02T03:09:30.817Z,21.7
2022-08-02T03:12:32.319Z,21.7
2022-08-02T03:15:30.813Z,21.6
2022-08-02T03:18:30.821Z,21.6
2022-08-02T03:21:30.818Z,21.6
2022-08-02T03:24:30.817Z,21.6
2022-08-02T03:27:30.820Z,21.6
2022-08-02T03:30:30.821Z,21.6
2022-08-02T03:33:30.821Z,21.5
2022-08-02T03:36:30.823Z,21.5
2022-08-02T03:39:30.836Z,21.5
2022-08-02T03:42:30.820Z,21.5
2022-08-02T03:45:30.826Z,21.5
2022-08-02T03:48:34.482Z,21.5
2022-08-02T03:51:30.825Z,21.5
2022-08-02T03:54:32.856Z,21.4
2022-08-02T03:57:30.822Z,21.4
2022-08-02T04:00:30.823Z,21.4
2022-08-02T04:03:30.836Z,21.4
2022-08-02T04:06:30.828Z,21.3
2022-08-02T04:09:30.825Z,21.3
2022-08-02T04:12:30.825Z,21.3
2022-08-02T04:15:30.828Z,21.3
2022-08-02T04:18:30.856Z,21.3
2022-08-02T04:21:41.552Z,21.3
2022-08-02T04:24:30.837Z,21.3
2022-08-02T04:27:50.202Z,21.2
2022-08-02T04:30:30.836Z,21.2
2022-08-02T04:33:30.835Z,21.2
2022-08-02T04:36:31.892Z,21.2
2022-08-02T04:39:30.836Z,21.2
2022-08-02T04:42:30.833Z,21.2
2022-08-02T04:45:30.850Z,21.2
2022-08-02T04:48:30.839Z,21.2
2022-08-02T04:54:30.831Z,21.2
2022-08-02T04:57:30.837Z,21.2
2022-08-02T05:00:30.855Z,21.2
2022-08-02T05:03:30.842Z,21.2
2022-08-02T05:06:30.838Z,21.2
2022-08-02T05:09:30.840Z,21.2
2022-08-02T05:12:30.843Z,21.2
2022-08-02T05:15:33.209Z,21.2
2022-08-02T05:21:30.842Z,21.2
2022-08-02T05:24:30.843Z,21.2
2022-08-02T05:27:30.835Z,21.2
2022-08-02T05:30:30.839Z,21.2
2022-08-02T05:33:30.839Z,21.2
2022-08-02T05:36:30.841Z,21.2
2022-08-02T05:39:31.802Z,21.2
2022-08-02T05:42:30.838Z,21.3
2022-08-02T05:45:30.846Z,21.3
2022-08-02T05:48:31.805Z,21.3
2022-08-02T05:51:30.846Z,21.3
2022-08-02T05:54:30.846Z,21.3
2022-08-02T05:57:30.846Z,21.3
2022-08-02T06:00:30.852Z,21.3
2022-08-02T06:03:30.848Z,21.4
2022-08-02T06:06:30.845Z,21.4
2022-08-02T06:09:30.849Z,21.4
2022-08-02T06:12:30.848Z,21.5
2022-08-02T06:15:30.851Z,21.5
2022-08-02T06:18:30.848Z,21.6
2022-08-02T06:24:30.849Z,21.6
2022-08-02T06:30:30.847Z,21.7
2022-08-02T06:33:30.849Z,21.7
2022-08-02T06:36:30.840Z,21.8
2022-08-02T06:39:30.847Z,21.8
2022-08-02T06:42:30.848Z,21.8
2022-08-02T06:45:30.852Z,21.8
2022-08-02T06:48:30.844Z,21.8
2022-08-02T06:51:30.855Z,21.9
2022-08-02T06:54:30.848Z,21.9
2022-08-02T06:57:30.861Z,21.9
2022-08-02T07:00:30.847Z,22
2022-08-02T07:03:30.853Z,22
2022-08-02T07:06:30.846Z,22
2022-08-02T07:09:30.846Z,22.1
2022-08-02T07:12:31.014Z,22.1
2022-08-02T07:15:30.853Z,22.1
2022-08-02T07:18:30.866Z,22.2
2022-08-02T07:21:56.254Z,22.2
2022-08-02T07:24:30.858Z,22.2
2022-08-02T07:27:30.856Z,22.3
2022-08-02T07:30:30.859Z,22.3
2022-08-02T07:33:37.125Z,22.3
2022-08-02T07:36:30.866Z,22.3
2022-08-02T07:39:30.854Z,22.4
2022-08-02T07:42:30.857Z,22.4
2022-08-02T07:45:30.860Z,22.4
2022-08-02T07:48:30.857Z,22.4
2022-08-02T07:51:30.864Z,22.5
2022-08-02T07:54:30.871Z,22.5
2022-08-02T07:57:30.859Z,22.6
2022-08-02T08:00:30.857Z,22.6
2022-08-02T08:03:30.864Z,22.6
2022-08-02T08:06:30.896Z,22.7
2022-08-02T08:09:30.887Z,22.7
2022-08-02T08:12:30.862Z,22.8
2022-08-02T08:15:30.883Z,22.8
2022-08-02T08:18:30.879Z,22.9
2022-08-02T08:21:30.882Z,22.9
2022-08-02T08:24:30.877Z,22.9
2022-08-02T08:27:30.880Z,23
2022-08-02T08:30:30.882Z,23
2022-08-02T08:33:30.878Z,23.1
2022-08-02T08:36:30.883Z,23.1
2022-08-02T08:39:30.876Z,23.2
2022-08-02T08:42:30.927Z,23.3
2022-08-02T08:45:30.881Z,23.3
2022-08-02T08:48:31.826Z,23.3
2022-08-02T08:51:30.878Z,23.4
2022-08-02T08:54:30.889Z,23.4
2022-08-02T08:57:30.889Z,23.5
2022-08-02T09:00:30.880Z,23.6
2022-08-02T09:03:33.930Z,23.6
2022-08-02T09:06:30.883Z,23.7
2022-08-02T09:09:30.879Z,23.7
2022-08-02T09:12:30.879Z,23.8
2022-08-02T09:15:30.882Z,23.8
2022-08-02T09:18:30.888Z,23.9
2022-08-02T09:21:30.885Z,23.9
2022-08-02T09:24:30.923Z,24
2022-08-02T09:27:30.892Z,24.1
2022-08-02T09:30:30.886Z,24.1
2022-08-02T09:33:30.913Z,24.2
2022-08-02T09:36:30.888Z,24.3
2022-08-02T09:39:30.880Z,24.3
2022-08-02T09:42:31.380Z,24.4
2022-08-02T09:45:30.888Z,24.5
2022-08-02T09:48:30.877Z,24.6
2022-08-02T09:51:30.882Z,24.7
2022-08-02T09:54:30.891Z,24.7
2022-08-02T09:57:30.886Z,24.8
2022-08-02T10:00:50.559Z,24.8
2022-08-02T10:03:35.297Z,25
2022-08-02T10:06:30.883Z,25
2022-08-02T10:09:30.888Z,25.1
2022-08-02T10:12:30.899Z,25.1
2022-08-02T10:15:30.885Z,25.3
2022-08-02T10:18:38.587Z,25.4
2022-08-02T10:21:30.885Z,25.4
2022-08-02T10:24:30.885Z,25.4
2022-08-02T10:30:30.882Z,25.5
2022-08-02T10:33:30.891Z,25.6
2022-08-02T10:36:30.895Z,25.7
2022-08-02T10:39:30.885Z,25.7
2022-08-02T10:42:30.947Z,25.8
2022-08-02T10:45:30.892Z,25.9
2022-08-02T10:48:30.895Z,26
2022-08-02T10:51:34.572Z,26
2022-08-02T10:54:30.908Z,26.1
2022-08-02T10:57:30.896Z,26.1
2022-08-02T11:00:30.906Z,26.3
2022-08-02T11:03:30.895Z,26.4
2022-08-02T11:06:30.893Z,26.4
2022-08-02T11:09:32.596Z,26.4
2022-08-02T11:12:30.894Z,26.5
2022-08-02T11:15:30.904Z,26.5
2022-08-02T11:18:30.904Z,26.5
2022-08-02T11:21:30.906Z,26.6
2022-08-02T11:24:30.906Z,26.7
2022-08-02T11:27:30.913Z,26.8
2022-08-02T11:30:30.901Z,26.8
2022-08-02T11:33:30.914Z,27
2022-08-02T11:36:30.904Z,27
2022-08-02T11:39:30.909Z,27.1
2022-08-02T11:42:30.903Z,27.1
2022-08-02T11:45:30.906Z,27.2
2022-08-02T11:48:30.914Z,27.2
2022-08-02T11:51:30.909Z,27.3
2022-08-02T11:54:30.908Z,27.4
2022-08-02T11:57:37.698Z,27.4
2022-08-02T12:00:31.046Z,27.5
2022-08-02T12:03:30.959Z,27.5
2022-08-02T12:06:30.902Z,27.5
2022-08-02T12:09:30.906Z,27.5
2022-08-02T12:12:30.907Z,27.5
2022-08-02T12:15:30.905Z,27.5
2022-08-02T12:18:30.900Z,27.6
2022-08-02T12:21:30.904Z,27.6
2022-08-02T12:24:30.907Z,27.6
2022-08-02T12:27:30.943Z,27.7
2022-08-02T12:30:30.911Z,27.7
2022-08-02T12:33:30.915Z,27.7
2022-08-02T12:36:30.906Z,27.8
2022-08-02T12:39:31.541Z,27.8
2022-08-02T12:42:30.907Z,27.9
2022-08-02T12:45:38.271Z,28
2022-08-02T12:48:36.610Z,28
2022-08-02T12:51:50.452Z,28
2022-08-02T12:54:32.069Z,28
2022-08-02T12:57:30.919Z,28
2022-08-02T13:00:30.908Z,28.1
2022-08-02T13:04:08.801Z,28.1
2022-08-02T13:06:39.602Z,28
2022-08-02T13:09:30.912Z,28.1
2022-08-02T13:12:30.910Z,28.1
2022-08-02T13:15:47.005Z,28.1
2022-08-02T13:18:30.927Z,28.1
2022-08-02T13:21:40.464Z,28.1
2022-08-02T13:24:33.590Z,28.2
2022-08-02T13:27:30.920Z,28.2
2022-08-02T13:30:30.924Z,28.3
2022-08-02T13:33:30.930Z,28.3
2022-08-02T13:36:30.918Z,28.3
2022-08-02T13:39:30.925Z,28.3
2022-08-02T13:42:30.929Z,28.4
2022-08-02T13:45:30.907Z,28.4
2022-08-02T13:48:30.913Z,28.4
2022-08-02T13:51:30.915Z,28.5
2022-08-02T13:54:30.911Z,28.5
2022-08-02T13:57:30.910Z,28.5
2022-08-02T14:00:34.201Z,28.5
2022-08-02T14:04:06.168Z,28.6
2022-08-02T14:06:30.916Z,28.7
2022-08-02T14:09:30.927Z,28.7
2022-08-02T14:12:30.904Z,28.8
2022-08-02T14:15:30.955Z,28.8
2022-08-02T14:18:30.991Z,28.8
2022-08-02T14:21:31.008Z,28.8
2022-08-02T14:24:31.012Z,28.8
2022-08-02T14:27:31.028Z,28.8
2022-08-02T14:30:30.921Z,28.8
2022-08-02T14:33:30.924Z,28.8
2022-08-02T14:36:30.915Z,28.8
2022-08-02T14:39:42.587Z,28.8
2022-08-02T14:42:30.911Z,28.8
2022-08-02T14:45:36.911Z,28.8
2022-08-02T14:51:30.927Z,28.9
2022-08-02T14:54:31.231Z,28.9
2022-08-02T14:57:30.923Z,28.9
2022-08-02T15:00:30.935Z,28.9
2022-08-02T15:03:30.937Z,28.8
2022-08-02T15:06:30.940Z,28.8
2022-08-02T15:09:30.932Z,28.8
2022-08-02T15:12:30.931Z,28.8
2022-08-02T15:15:30.926Z,28.8
2022-08-02T15:18:30.933Z,28.8
2022-08-02T15:21:40.549Z,28.8
2022-08-02T15:24:30.928Z,28.7
2022-08-02T15:27:30.929Z,28.7
2022-08-02T15:30:30.932Z,28.7
2022-08-02T15:33:30.934Z,28.6
2022-08-02T15:36:30.934Z,28.5
2022-08-02T15:39:30.943Z,28.5
2022-08-02T15:42:31.107Z,28.5
2022-08-02T15:45:30.937Z,28.5
2022-08-02T15:48:30.931Z,28.4
2022-08-02T15:51:30.936Z,28.4
2022-08-02T15:54:30.931Z,28.4
2022-08-02T15:57:30.926Z,28.3
2022-08-02T16:00:30.936Z,28.3
2022-08-02T16:03:30.937Z,28.3
2022-08-02T16:06:30.933Z,28.3
2022-08-02T16:09:30.923Z,28.2
2022-08-02T16:12:32.510Z,28.2
2022-08-02T16:15:30.932Z,28.2
2022-08-02T16:24:30.926Z,28.2
2022-08-02T16:27:30.939Z,28.1
2022-08-02T16:33:30.941Z,28.1
2022-08-02T16:36:30.933Z,28.1
2022-08-02T16:39:30.936Z,28.1
2022-08-02T16:42:30.932Z,28
2022-08-02T16:45:32.491Z,28
2022-08-02T16:48:30.937Z,28
2022-08-02T16:51:31.117Z,28
2022-08-02T16:54:30.935Z,28
2022-08-02T16:57:42.527Z,28
2022-08-02T17:00:30.939Z,28
2022-08-02T17:03:33.696Z,28
2022-08-02T17:06:30.935Z,27.9
2022-08-02T17:09:30.940Z,27.9
2022-08-02T17:12:30.936Z,27.9
2022-08-02T17:16:00.916Z,27.9
2022-08-02T17:18:30.934Z,27.9
2022-08-02T17:24:30.937Z,27.8
2022-08-02T17:30:30.945Z,27.8
2022-08-02T17:33:30.937Z,27.8
2022-08-02T17:36:30.939Z,27.8
2022-08-02T17:39:33.419Z,27.7
2022-08-02T17:42:30.943Z,27.7
2022-08-02T17:45:59.532Z,27.7
2022-08-02T17:48:36.857Z,27.7
2022-08-02T17:51:33.384Z,27.6
2022-08-02T17:54:30.944Z,27.6
2022-08-02T17:57:40.449Z,27.6
2022-08-02T18:00:30.946Z,27.6
2022-08-02T18:03:30.941Z,27.6
2022-08-02T18:06:30.949Z,27.6
2022-08-02T18:09:30.968Z,27.5
2022-08-02T18:12:30.954Z,27.5
2022-08-02T18:15:32.461Z,27.5
2022-08-02T18:18:30.961Z,27.4
2022-08-02T18:21:30.959Z,27.3
2022-08-02T18:24:30.956Z,27.3
2022-08-02T18:27:30.955Z,27.2
2022-08-02T18:30:30.963Z,27.2
2022-08-02T18:33:56.206Z,27.2
2022-08-02T18:36:30.958Z,27.2
2022-08-02T18:39:33.038Z,27.2
2022-08-02T18:42:30.956Z,27.2
2022-08-02T18:45:36.806Z,27.1
2022-08-02T18:48:30.961Z,27.1
2022-08-02T18:51:36.609Z,27.1
2022-08-02T18:54:33.871Z,27.1
2022-08-02T18:58:02.528Z,27.1
2022-08-02T19:00:30.980Z,27.1
2022-08-02T19:03:30.959Z,27.1
2022-08-02T19:06:30.986Z,27
2022-08-02T19:09:30.963Z,27
2022-08-02T19:12:30.959Z,27
2022-08-02T19:15:30.963Z,26.9
2022-08-02T19:18:30.963Z,26.9
2022-08-02T19:22:15.554Z,26.8
2022-08-02T19:24:30.966Z,26.8
2022-08-02T19:27:32.386Z,26.8
2022-08-02T19:30:30.964Z,26.7
2022-08-02T19:33:54.636Z,26.7
2022-08-02T19:36:30.968Z,26.7
2022-08-02T19:39:30.960Z,26.6
2022-08-02T19:42:30.960Z,26.5
2022-08-02T19:45:45.169Z,26.5
2022-08-02T19:48:30.970Z,26.4
2022-08-02T19:51:49.422Z,26.3
2022-08-02T19:54:35.946Z,26.2
2022-08-02T19:57:32.967Z,26.2
2022-08-02T20:00:30.971Z,26.1
2022-08-02T20:03:51.179Z,26
2022-08-02T20:06:30.973Z,25.9
2022-08-02T20:09:33.332Z,25.8
2022-08-02T20:12:35.320Z,25.8
2022-08-02T20:15:51.966Z,25.7
2022-08-02T20:18:30.974Z,25.7
2022-08-02T20:21:34.772Z,25.6
2022-08-02T20:24:30.970Z,25.5
2022-08-02T20:27:30.965Z,25.4
2022-08-02T20:33:30.970Z,25.3
2022-08-02T20:36:30.972Z,25.3
2022-08-02T20:39:42.808Z,25.3
2022-08-02T20:42:30.973Z,25.2
2022-08-02T20:45:30.982Z,25.2
2022-08-02T20:48:30.990Z,25.1
2022-08-02T20:51:33.605Z,25
2022-08-02T20:54:30.989Z,25
2022-08-02T20:57:36.065Z,25
2022-08-02T21:00:30.973Z,25
2022-08-02T21:03:32.480Z,25
2022-08-02T21:06:30.973Z,25
2022-08-02T21:09:33.089Z,25
2022-08-02T21:12:31.121Z,24.9
2022-08-02T21:15:30.969Z,24.9
2022-08-02T21:18:36.884Z,24.9
2022-08-02T21:21:30.986Z,24.8
2022-08-02T21:24:30.982Z,24.8
2022-08-02T21:27:52.385Z,24.8
2022-08-02T21:30:30.977Z,24.7
2022-08-02T21:33:47.047Z,24.7
2022-08-02T21:36:32.872Z,24.6
2022-08-02T21:39:30.981Z,24.6
2022-08-02T21:42:30.977Z,24.5
2022-08-02T21:45:30.985Z,24.5
2022-08-02T21:48:30.993Z,24.4
2022-08-02T21:51:34.083Z,24.4
2022-08-02T21:54:30.989Z,24.4
2022-08-02T21:57:33.977Z,24.3
2022-08-02T22:00:30.988Z,24.3
2022-08-02T22:03:30.983Z,24.2
2022-08-02T22:06:30.986Z,24.2
2022-08-02T22:09:42.682Z,24.2
2022-08-02T22:12:30.991Z,24.2
2022-08-02T22:15:35.722Z,24.1
2022-08-02T22:18:30.991Z,24.1
2022-08-02T22:21:33.613Z,24.1
2022-08-02T22:24:31.016Z,24
2022-08-02T22:28:00.904Z,24
2022-08-02T22:30:30.990Z,24
2022-08-02T22:33:31.447Z,23.9
2022-08-02T22:36:31.007Z,23.9
2022-08-02T22:39:30.995Z,23.9
2022-08-02T22:42:30.991Z,23.9
2022-08-02T22:45:31.840Z,23.8
2022-08-02T22:48:30.990Z,23.8
2022-08-02T22:51:30.992Z,23.8
2022-08-02T22:54:30.989Z,23.8
2022-08-02T22:57:31.393Z,23.8
2022-08-02T23:00:30.995Z,23.8
2022-08-02T23:03:30.992Z,23.8
2022-08-02T23:06:30.989Z,23.8
2022-08-02T23:09:30.990Z,23.8
2022-08-02T23:12:31.109Z,23.8
2022-08-02T23:15:31.017Z,23.8
2022-08-02T23:21:45.661Z,23.7
2022-08-02T23:24:30.996Z,23.7
2022-08-02T23:27:31.000Z,23.7
2022-08-02T23:30:31.002Z,23.7
2022-08-02T23:33:31.015Z,23.6
2022-08-02T23:36:30.999Z,23.6
2022-08-02T23:39:31.000Z,23.6
2022-08-02T23:42:31.004Z,23.6
2022-08-02T23:45:33.564Z,23.6
2022-08-02T23:48:31.022Z,23.6
2022-08-02T23:51:31.006Z,23.6
2022-08-02T23:54:31.005Z,23.5
2022-08-02T23:57:31.006Z,23.6
